createdAt,value
2019-02-08T05:08:42.349Z,29.50
2019-02-08T05:11:37.398Z,29.30
2019-02-08T05:14:35.646Z,29.30
2019-02-08T05:17:33.157Z,29.40
2019-02-08T05:20:47.292Z,29.50
2019-02-08T05:23:43.539Z,29.60
2019-02-08T05:26:38.321Z,29.50
2019-02-08T05:30:18.884Z,29.50
2019-02-08T05:36:53.051Z,29.50
2019-02-08T05:39:49.368Z,29.20
2019-02-08T05:42:43.695Z,28.40
2019-02-08T05:49:03.462Z,27.40
2019-02-08T05:51:58.074Z,26.90
2019-02-08T05:54:54.473Z,26.70
2019-02-08T05:58:52.774Z,26.60
2019-02-08T06:01:35.868Z,26.50
2019-02-08T06:04:32.894Z,26.30
2019-02-08T06:07:26.851Z,26.20
2019-02-08T06:10:20.055Z,26.10
2019-02-08T06:13:16.674Z,26.10
2019-02-08T06:16:25.957Z,26.00
2019-02-08T06:19:39.251Z,25.90
2019-02-08T06:22:27.194Z,25.80
2019-02-08T06:25:52.895Z,25.80
2019-02-08T06:32:34.081Z,25.70
2019-02-08T06:36:08.048Z,25.80
2019-02-08T06:45:40.723Z,25.60
2019-02-08T06:48:35.768Z,25.60
2019-02-08T06:51:33.645Z,25.50
2019-02-08T06:54:27.188Z,25.50
2019-02-08T06:57:37.854Z,25.50
2019-02-08T07:00:42.356Z,25.50
2019-02-08T07:03:48.352Z,25.30
2019-02-08T07:06:58.023Z,25.40
2019-02-08T07:10:44.831Z,25.80
2019-02-08T07:14:03.265Z,26.50
2019-02-08T07:17:14.585Z,27.30
2019-02-08T07:20:37.123Z,27.70
2019-02-08T07:23:44.106Z,28.00
2019-02-08T07:26:59.345Z,28.10
2019-02-08T07:30:36.590Z,28.00
2019-02-08T07:37:14.637Z,27.70
2019-02-08T07:40:36.814Z,27.70
2019-02-08T07:47:34.042Z,27.80
2019-02-08T07:50:39.750Z,27.90
2019-02-08T07:57:59.975Z,27.80
2019-02-08T08:01:14.885Z,27.80
2019-02-08T08:04:30.963Z,27.80
2019-02-08T08:07:54.632Z,27.90
2019-02-08T08:11:14.406Z,27.80
2019-02-08T08:14:24.713Z,28.00
2019-02-08T08:17:47.822Z,28.10
2019-02-08T08:21:01.718Z,28.10
2019-02-08T08:24:01.354Z,28.00
2019-02-08T08:27:40.253Z,28.10
2019-02-08T08:31:36.751Z,28.20
2019-02-08T08:35:03.106Z,28.10
2019-02-08T08:41:58.034Z,28.30
2019-02-08T08:52:39.566Z,28.20
2019-02-08T08:55:57.143Z,28.20
2019-02-08T08:59:07.257Z,28.50
2019-02-08T09:02:34.070Z,28.60
2019-02-08T09:05:35.611Z,28.50
2019-02-08T09:12:39.069Z,28.50
2019-02-08T09:15:59.133Z,28.90
2019-02-08T09:23:14.115Z,29.50
2019-02-08T09:27:14.318Z,29.70
2019-02-08T09:34:15.025Z,29.20
2019-02-08T09:37:19.253Z,28.90
2019-02-08T09:40:53.370Z,28.70
2019-02-08T09:44:02.617Z,28.50
2019-02-08T09:47:19.629Z,28.50
2019-02-08T09:50:56.859Z,28.40
2019-02-08T09:54:08.711Z,28.40
2019-02-08T09:57:31.142Z,28.60
2019-02-08T10:00:44.315Z,28.60
2019-02-08T10:03:55.599Z,28.90
2019-02-08T10:07:05.719Z,29.40
2019-02-08T10:10:06.581Z,29.70
2019-02-08T10:13:28.318Z,29.70
2019-02-08T10:16:40.392Z,29.20
2019-02-08T10:19:58.095Z,29.30
2019-02-08T10:23:13.030Z,29.50
2019-02-08T10:26:24.967Z,29.30
2019-02-08T10:29:36.412Z,29.40
2019-02-08T10:32:48.637Z,29.40
2019-02-08T10:36:11.018Z,29.60
2019-02-08T10:39:21.905Z,29.40
2019-02-08T10:42:36.515Z,29.20
2019-02-08T10:45:47.298Z,29.20
2019-02-08T10:49:18.454Z,29.40
2019-02-08T10:52:43.262Z,29.40
2019-02-08T10:56:00.137Z,29.40
2019-02-08T10:59:21.941Z,29.10
2019-02-08T11:02:36.058Z,28.80
2019-02-08T11:05:46.271Z,28.90
2019-02-08T11:09:00.115Z,29.00
2019-02-08T11:12:27.192Z,29.20
2019-02-08T11:15:58.255Z,29.00
2019-02-08T11:19:21.605Z,29.30
2019-02-08T11:22:40.165Z,29.20
2019-02-08T11:25:34.517Z,28.70
2019-02-08T11:28:27.685Z,29.10
2019-02-08T11:31:21.553Z,29.30
2019-02-08T11:34:14.414Z,28.80
2019-02-08T11:37:10.997Z,28.20
2019-02-08T11:40:04.476Z,28.20
2019-02-08T11:42:58.234Z,28.20
2019-02-08T11:45:52.375Z,28.40
2019-02-08T11:48:45.772Z,28.70
2019-02-08T11:51:38.610Z,28.80
2019-02-08T11:54:33.217Z,29.10
2019-02-08T11:57:28.097Z,29.20
2019-02-08T12:00:25.184Z,29.30
2019-02-08T12:03:19.226Z,29.30
2019-02-08T12:06:12.372Z,29.10
2019-02-08T12:09:09.236Z,29.30
2019-02-08T12:12:03.235Z,29.20
2019-02-08T12:15:05.238Z,29.20
2019-02-08T12:22:05.767Z,29.10
2019-02-08T12:24:56.540Z,29.20
2019-02-08T12:31:11.891Z,29.20
2019-02-08T12:34:05.620Z,29.00
2019-02-08T12:37:04.264Z,29.00
2019-02-08T12:39:58.728Z,29.10
2019-02-08T12:42:52.540Z,29.20
2019-02-08T12:45:48.199Z,29.00
2019-02-08T12:48:42.705Z,28.90
2019-02-08T12:51:35.805Z,28.90
2019-02-08T12:54:39.861Z,28.80
2019-02-08T13:01:07.242Z,28.80
2019-02-08T13:07:45.699Z,28.90
2019-02-08T13:10:53.751Z,29.10
2019-02-08T13:13:48.080Z,29.00
2019-02-08T13:16:47.153Z,29.10
2019-02-08T13:19:43.408Z,29.10
2019-02-08T13:22:36.485Z,29.20
2019-02-08T13:25:33.390Z,29.10
2019-02-08T13:28:32.516Z,29.10
2019-02-08T13:31:29.286Z,29.10
2019-02-08T13:34:24.880Z,29.10
2019-02-08T13:37:22.621Z,29.00
2019-02-08T13:40:50.036Z,29.10
2019-02-08T13:47:08.383Z,29.30
2019-02-08T13:50:08.691Z,29.20
2019-02-08T13:53:00.306Z,29.20
2019-02-08T13:55:53.279Z,29.10
2019-02-08T13:58:50.356Z,29.30
2019-02-08T14:01:43.092Z,29.30
2019-02-08T14:04:36.123Z,29.20
2019-02-08T14:07:30.663Z,29.20
2019-02-08T14:10:25.067Z,29.40
2019-02-08T14:13:18.567Z,29.30
2019-02-08T14:16:11.839Z,29.40
2019-02-08T14:19:05.424Z,29.40
2019-02-08T14:21:58.764Z,29.20
2019-02-08T14:24:51.839Z,29.30
2019-02-08T14:27:45.581Z,29.10
2019-02-08T14:30:39.857Z,29.10
2019-02-08T14:33:33.270Z,29.00
2019-02-08T14:36:26.675Z,29.20
2019-02-08T14:39:19.294Z,29.30
2019-02-08T14:42:13.211Z,29.40
2019-02-08T14:46:15.744Z,29.20
2019-02-08T14:53:06.849Z,28.90
2019-02-08T14:56:42.460Z,28.90
2019-02-08T14:59:34.907Z,29.10
2019-02-08T15:02:28.821Z,29.20
2019-02-08T15:05:21.587Z,29.30
2019-02-08T15:08:14.761Z,29.40
2019-02-08T15:11:08.604Z,29.50
2019-02-08T15:14:04.206Z,29.30
2019-02-08T15:16:58.018Z,29.30
2019-02-08T15:19:51.854Z,29.40
2019-02-08T15:22:44.771Z,29.30
2019-02-08T15:25:38.115Z,29.40
2019-02-08T15:28:31.176Z,29.30
2019-02-08T15:31:24.769Z,29.40
2019-02-08T15:34:19.672Z,29.40
2019-02-08T15:37:13.146Z,29.40
2019-02-08T15:40:07.405Z,29.50
2019-02-08T15:43:01.128Z,29.40
2019-02-08T15:45:56.233Z,29.40
2019-02-08T15:48:50.129Z,29.50
2019-02-08T15:51:43.410Z,29.40
2019-02-08T15:54:36.202Z,29.40
2019-02-08T15:57:32.133Z,29.50
2019-02-08T16:00:25.894Z,29.40
2019-02-08T16:03:19.480Z,29.50
2019-02-08T16:06:13.395Z,29.50
2019-02-08T16:09:10.686Z,29.50
2019-02-08T16:12:04.585Z,29.50
2019-02-08T16:14:58.034Z,29.50
2019-02-08T16:17:51.347Z,29.60
2019-02-08T16:20:44.451Z,29.60
2019-02-08T16:23:38.638Z,29.20
2019-02-08T16:26:32.198Z,29.30
2019-02-08T16:29:25.551Z,29.20
2019-02-08T16:32:21.613Z,29.30
2019-02-08T16:35:15.178Z,29.30
2019-02-08T16:38:09.404Z,29.50
2019-02-08T16:41:02.606Z,29.60
2019-02-08T16:43:55.738Z,29.70
2019-02-08T16:46:49.277Z,29.40
2019-02-08T16:49:42.257Z,29.10
2019-02-08T16:52:36.127Z,29.20
2019-02-08T16:55:29.835Z,29.50
2019-02-08T16:58:24.663Z,29.60
2019-02-08T17:01:18.870Z,29.70
2019-02-08T17:04:12.437Z,29.60
2019-02-08T17:07:05.723Z,29.70
2019-02-08T17:09:58.738Z,29.70
2019-02-08T17:12:52.041Z,29.70
2019-02-08T17:15:44.771Z,29.70
2019-02-08T17:18:39.027Z,29.70
2019-02-08T17:21:32.145Z,29.70
2019-02-08T17:24:25.839Z,29.70
2019-02-08T17:27:18.682Z,29.70
2019-02-08T17:30:13.342Z,29.60
2019-02-08T17:33:06.849Z,29.70
2019-02-08T17:35:59.430Z,29.70
2019-02-08T17:38:53.727Z,29.70
2019-02-08T17:41:46.261Z,29.70
2019-02-08T17:44:39.274Z,29.50
2019-02-08T17:47:32.718Z,29.30
2019-02-08T17:50:26.729Z,29.40
2019-02-08T17:53:19.605Z,29.50
2019-02-08T17:56:13.030Z,29.60
2019-02-08T17:59:06.203Z,29.70
2019-02-08T18:01:59.976Z,29.50
2019-02-08T18:04:52.554Z,29.50
2019-02-08T18:07:45.878Z,29.60
2019-02-08T18:10:39.027Z,29.60
2019-02-08T18:13:31.866Z,29.60
2019-02-08T18:16:25.062Z,29.60
2019-02-08T18:19:17.965Z,29.50
2019-02-08T18:22:10.844Z,29.60
2019-02-08T18:25:05.097Z,29.60
2019-02-08T18:27:57.922Z,29.50
2019-02-08T18:30:51.258Z,29.60
2019-02-08T18:33:44.169Z,29.60
2019-02-08T18:36:37.384Z,29.60
2019-02-08T18:39:30.543Z,29.60
2019-02-08T18:42:24.393Z,29.40
2019-02-08T18:45:18.747Z,29.50
2019-02-08T18:48:11.502Z,29.40
2019-02-08T18:51:04.623Z,29.40
2019-02-08T18:53:57.481Z,29.50
2019-02-08T18:56:49.812Z,29.50
2019-02-08T18:59:42.316Z,29.50
2019-02-08T19:02:34.889Z,29.40
2019-02-08T19:05:27.207Z,29.50
2019-02-08T19:08:19.916Z,29.40
2019-02-08T19:11:12.564Z,29.50
2019-02-08T19:14:05.874Z,29.50
2019-02-08T19:16:58.883Z,29.40
2019-02-08T19:19:51.441Z,29.30
2019-02-08T19:22:44.590Z,29.30
2019-02-08T19:25:38.349Z,29.40
2019-02-08T19:28:31.174Z,29.30
2019-02-08T19:31:23.977Z,29.30
2019-02-08T19:34:18.036Z,29.20
2019-02-08T19:37:11.221Z,29.30
2019-02-08T19:40:04.208Z,29.30
2019-02-08T19:42:57.152Z,29.30
2019-02-08T19:45:50.164Z,29.30
2019-02-08T19:48:42.857Z,29.20
2019-02-08T19:51:36.571Z,29.10
2019-02-08T19:54:29.850Z,29.20
2019-02-08T19:57:23.053Z,29.30
2019-02-08T20:00:17.551Z,29.10
2019-02-08T20:03:11.217Z,29.20
2019-02-08T20:06:04.722Z,29.20
2019-02-08T20:08:58.001Z,29.20
2019-02-08T20:11:51.204Z,29.20
2019-02-08T20:14:44.435Z,29.40
2019-02-08T20:17:37.322Z,29.30
2019-02-08T20:20:30.557Z,29.20
2019-02-08T20:23:23.711Z,29.30
2019-02-08T20:26:17.004Z,29.30
2019-02-08T20:29:10.105Z,29.30
2019-02-08T20:32:04.218Z,29.30
2019-02-08T20:34:57.100Z,29.20
2019-02-08T20:37:50.259Z,29.20
2019-02-08T20:40:44.063Z,29.20
2019-02-08T20:43:36.637Z,29.20
2019-02-08T20:46:29.117Z,29.20
2019-02-08T20:49:22.138Z,29.20
2019-02-08T20:52:14.259Z,29.30
2019-02-08T20:55:08.365Z,29.20
2019-02-08T20:58:01.161Z,29.20
2019-02-08T21:00:55.585Z,29.10
2019-02-08T21:03:48.626Z,29.20
2019-02-08T21:06:42.962Z,29.20
2019-02-08T21:09:35.742Z,29.20
2019-02-08T21:12:28.292Z,29.10
2019-02-08T21:15:21.158Z,29.10
2019-02-08T21:18:14.452Z,29.20
2019-02-08T21:21:07.155Z,29.20
2019-02-08T21:24:00.255Z,29.20
2019-02-08T21:26:53.330Z,29.20
2019-02-08T21:29:46.906Z,29.20
2019-02-08T21:32:40.762Z,29.30
2019-02-08T21:35:33.732Z,29.10
2019-02-08T21:38:26.955Z,29.10
2019-02-08T21:41:20.081Z,29.00
2019-02-08T21:44:12.555Z,29.10
2019-02-08T21:47:05.397Z,29.10
2019-02-08T21:49:57.839Z,29.10
2019-02-08T21:52:50.934Z,29.00
2019-02-08T21:55:44.169Z,29.00
2019-02-08T21:58:36.988Z,28.90
2019-02-08T22:01:29.964Z,29.00
2019-02-08T22:04:22.625Z,28.90
2019-02-08T22:07:15.414Z,29.00
2019-02-08T22:10:08.945Z,29.00
2019-02-08T22:13:02.161Z,29.00
2019-02-08T22:15:55.012Z,29.00
2019-02-08T22:18:47.872Z,28.90
2019-02-08T22:21:40.358Z,28.90
2019-02-08T22:24:32.696Z,29.00
2019-02-08T22:27:25.145Z,28.90
2019-02-08T22:30:18.882Z,29.00
2019-02-08T22:33:11.694Z,28.90
2019-02-08T22:36:04.890Z,28.80
2019-02-08T22:38:58.323Z,28.90
2019-02-08T22:41:50.890Z,28.90
2019-02-08T22:44:43.817Z,28.80
2019-02-08T22:47:36.479Z,29.00
2019-02-08T22:50:29.016Z,28.90
2019-02-08T22:53:22.052Z,28.80
2019-02-08T22:56:14.844Z,28.90
2019-02-08T22:59:07.723Z,28.80
2019-02-08T23:02:00.874Z,28.80
2019-02-08T23:04:53.641Z,28.80
2019-02-08T23:07:46.412Z,28.90
2019-02-08T23:10:39.185Z,28.90
2019-02-08T23:13:32.911Z,28.80
2019-02-08T23:16:25.586Z,28.90
2019-02-08T23:19:18.339Z,28.90
2019-02-08T23:22:10.690Z,29.00
2019-02-08T23:25:03.204Z,28.90
2019-02-08T23:27:55.872Z,28.90
2019-02-08T23:30:48.390Z,29.00
2019-02-08T23:33:41.323Z,28.90
2019-02-08T23:36:34.543Z,28.90
2019-02-08T23:39:26.986Z,29.00
2019-02-08T23:42:19.696Z,28.90
2019-02-08T23:45:12.909Z,29.00
2019-02-08T23:48:06.945Z,28.90
2019-02-08T23:50:59.565Z,28.90
2019-02-08T23:53:53.037Z,28.80
2019-02-08T23:56:46.235Z,28.90
2019-02-08T23:59:39.317Z,28.90
